KDRT

Del Rio International Airport

Del Rio, Texas, USA
METAR KDRT 231553Z AUTO 11006KT 10SM SCT008 OVC023 13/11 A3012 RMK AO2 SLP192 T01280111
Observed Flight Rules
Feb-23 @ 15:53 UTC (45 minutes ago) Marginal Visual Flight Rules
Wind Visibility Clouds
110° at 6 knots 10 miles
  • Scattered at 800' AGL
  • Overcast at 2,300' AGL
Temperatures Readings
Current 13°C / 55°F
Dewpoint 11°C / 52°F
Humidity 88%
Altimeter 30.12" Hg
Pressure 1019.2 hPa
Elevation 313
METAR KDRT 231553Z AUTO 11006KT 10SM SCT008 OVC023 13/11 A3012 RMK AO2 SLP192 T01280111
Observed Flight Rules
Feb-23 @ 15:53 UTC
(45 minutes ago)
MVFR
Wind Visibility
110° at 6 knots 10 miles
Clouds
  • Scattered at 800' AGL
  • Overcast at 2,300' AGL
Temperature Dewpoint
13°C / 55°F 11°C / 52°F
Humidity Altimeter Pressure
88% 30.12" Hg 1019.2 hPa